sensor_id;sensor_type;location;lat;lon;timestamp;P1;durP1;ratioP1;P2;durP2;ratioP2
4305;SDS011;2166;49.926;8.608;2024-01-30T00:00:36;13.05;;;7.47;;
4305;SDS011;2166;49.926;8.608;2024-01-30T00:03:05;23.40;;;11.45;;
4305;SDS011;2166;49.926;8.608;2024-01-30T00:05:33;18.42;;;10.00;;
4305;SDS011;2166;49.926;8.608;2024-01-30T00:08:02;15.00;;;9.32;;
4305;SDS011;2166;49.926;8.608;2024-01-30T00:10:30;17.88;;;9.05;;
4305;SDS011;2166;49.926;8.608;2024-01-30T00:12:58;13.10;;;8.43;;
4305;SDS011;2166;49.926;8.608;2024-01-30T00:15:28;16.55;;;9.60;;
4305;SDS011;2166;49.926;8.608;2024-01-30T00:17:56;16.00;;;8.80;;
4305;SDS011;2166;49.926;8.608;2024-01-30T00:20:24;17.65;;;9.25;;
4305;SDS011;2166;49.926;8.608;2024-01-30T00:22:52;18.90;;;10.23;;
4305;SDS011;2166;49.926;8.608;2024-01-30T00:25:21;18.73;;;9.82;;
4305;SDS011;2166;49.926;8.608;2024-01-30T00:27:49;17.83;;;10.35;;
4305;SDS011;2166;49.926;8.608;2024-01-30T00:30:18;17.60;;;9.43;;
4305;SDS011;2166;49.926;8.608;2024-01-30T00:32:49;16.42;;;9.13;;
4305;SDS011;2166;49.926;8.608;2024-01-30T00:35:17;19.45;;;9.98;;
4305;SDS011;2166;49.926;8.608;2024-01-30T00:37:45;19.05;;;10.57;;
4305;SDS011;2166;49.926;8.608;2024-01-30T00:40:13;16.52;;;10.00;;
4305;SDS011;2166;49.926;8.608;2024-01-30T00:42:42;20.92;;;10.07;;
4305;SDS011;2166;49.926;8.608;2024-01-30T00:45:14;17.48;;;9.55;;
4305;SDS011;2166;49.926;8.608;2024-01-30T00:47:43;15.77;;;10.38;;
4305;SDS011;2166;49.926;8.608;2024-01-30T00:50:12;15.75;;;9.32;;
4305;SDS011;2166;49.926;8.608;2024-01-30T00:52:41;18.48;;;9.60;;
4305;SDS011;2166;49.926;8.608;2024-01-30T00:55:11;15.95;;;9.02;;
4305;SDS011;2166;49.926;8.608;2024-01-30T00:57:40;16.15;;;9.18;;
4305;SDS011;2166;49.926;8.608;2024-01-30T01:00:12;18.77;;;9.25;;
4305;SDS011;2166;49.926;8.608;2024-01-30T01:02:43;18.52;;;9.40;;
4305;SDS011;2166;49.926;8.608;2024-01-30T01:05:13;20.63;;;11.15;;
4305;SDS011;2166;49.926;8.608;2024-01-30T01:07:41;14.57;;;9.00;;
4305;SDS011;2166;49.926;8.608;2024-01-30T01:10:10;16.92;;;9.98;;
4305;SDS011;2166;49.926;8.608;2024-01-30T01:12:40;19.73;;;10.15;;
4305;SDS011;2166;49.926;8.608;2024-01-30T01:15:10;16.00;;;10.32;;
4305;SDS011;2166;49.926;8.608;2024-01-30T01:17:38;14.38;;;9.60;;
4305;SDS011;2166;49.926;8.608;2024-01-30T01:20:07;21.30;;;10.02;;
4305;SDS011;2166;49.926;8.608;2024-01-30T01:22:38;18.48;;;10.32;;
4305;SDS011;2166;49.926;8.608;2024-01-30T01:25:08;21.38;;;10.43;;
4305;SDS011;2166;49.926;8.608;2024-01-30T01:27:37;16.63;;;10.40;;
4305;SDS011;2166;49.926;8.608;2024-01-30T01:30:08;16.80;;;9.15;;
4305;SDS011;2166;49.926;8.608;2024-01-30T01:32:38;18.48;;;11.38;;
4305;SDS011;2166;49.926;8.608;2024-01-30T01:35:11;21.33;;;10.95;;
4305;SDS011;2166;49.926;8.608;2024-01-30T01:37:41;16.15;;;10.57;;
4305;SDS011;2166;49.926;8.608;2024-01-30T01:40:09;18.65;;;10.43;;
4305;SDS011;2166;49.926;8.608;2024-01-30T01:42:38;16.48;;;9.23;;
4305;SDS011;2166;49.926;8.608;2024-01-30T01:45:09;20.48;;;9.10;;
4305;SDS011;2166;49.926;8.608;2024-01-30T01:47:40;17.58;;;9.95;;
4305;SDS011;2166;49.926;8.608;2024-01-30T01:50:09;17.77;;;10.10;;
4305;SDS011;2166;49.926;8.608;2024-01-30T01:52:38;15.45;;;8.88;;
4305;SDS011;2166;49.926;8.608;2024-01-30T01:55:09;17.63;;;9.27;;
4305;SDS011;2166;49.926;8.608;2024-01-30T01:57:38;13.85;;;8.82;;
4305;SDS011;2166;49.926;8.608;2024-01-30T02:00:07;15.50;;;9.65;;
4305;SDS011;2166;49.926;8.608;2024-01-30T02:02:37;17.73;;;10.05;;
4305;SDS011;2166;49.926;8.608;2024-01-30T02:05:12;19.50;;;9.88;;
4305;SDS011;2166;49.926;8.608;2024-01-30T02:07:43;18.17;;;10.32;;
4305;SDS011;2166;49.926;8.608;2024-01-30T02:10:12;18.67;;;9.07;;
4305;SDS011;2166;49.926;8.608;2024-01-30T02:12:41;16.52;;;9.85;;
4305;SDS011;2166;49.926;8.608;2024-01-30T02:15:12;17.77;;;10.00;;
4305;SDS011;2166;49.926;8.608;2024-01-30T02:17:41;17.95;;;10.77;;
4305;SDS011;2166;49.926;8.608;2024-01-30T02:20:10;24.40;;;10.32;;
4305;SDS011;2166;49.926;8.608;2024-01-30T02:22:41;19.58;;;10.27;;
4305;SDS011;2166;49.926;8.608;2024-01-30T02:25:11;21.15;;;10.73;;
4305;SDS011;2166;49.926;8.608;2024-01-30T02:27:39;24.05;;;11.15;;
4305;SDS011;2166;49.926;8.608;2024-01-30T02:30:08;19.65;;;11.43;;
4305;SDS011;2166;49.926;8.608;2024-01-30T02:32:37;21.25;;;11.95;;
4305;SDS011;2166;49.926;8.608;2024-01-30T02:35:05;18.70;;;11.50;;
4305;SDS011;2166;49.926;8.608;2024-01-30T02:37:34;19.10;;;11.75;;
4305;SDS011;2166;49.926;8.608;2024-01-30T02:40:04;22.83;;;12.88;;
4305;SDS011;2166;49.926;8.608;2024-01-30T02:42:34;21.38;;;12.25;;
4305;SDS011;2166;49.926;8.608;2024-01-30T02:45:02;19.83;;;11.50;;
4305;SDS011;2166;49.926;8.608;2024-01-30T02:47:30;18.50;;;12.20;;
4305;SDS011;2166;49.926;8.608;2024-01-30T02:49:59;22.58;;;12.73;;
4305;SDS011;2166;49.926;8.608;2024-01-30T02:52:27;25.42;;;12.10;;
4305;SDS011;2166;49.926;8.608;2024-01-30T02:54:56;22.65;;;12.57;;
4305;SDS011;2166;49.926;8.608;2024-01-30T02:57:25;22.35;;;12.77;;
4305;SDS011;2166;49.926;8.608;2024-01-30T02:59:54;24.70;;;13.00;;
4305;SDS011;2166;49.926;8.608;2024-01-30T03:02:23;18.90;;;12.65;;
4305;SDS011;2166;49.926;8.608;2024-01-30T03:04:51;24.45;;;13.18;;
4305;SDS011;2166;49.926;8.608;2024-01-30T03:07:20;23.13;;;12.43;;
4305;SDS011;2166;49.926;8.608;2024-01-30T03:09:49;20.67;;;12.60;;
4305;SDS011;2166;49.926;8.608;2024-01-30T03:12:17;21.63;;;12.63;;
4305;SDS011;2166;49.926;8.608;2024-01-30T03:14:47;18.35;;;11.70;;
4305;SDS011;2166;49.926;8.608;2024-01-30T03:17:16;20.20;;;11.43;;
4305;SDS011;2166;49.926;8.608;2024-01-30T03:19:45;19.80;;;11.90;;
4305;SDS011;2166;49.926;8.608;2024-01-30T03:22:14;19.75;;;11.82;;
4305;SDS011;2166;49.926;8.608;2024-01-30T03:24:43;24.45;;;11.45;;
4305;SDS011;2166;49.926;8.608;2024-01-30T03:27:12;20.42;;;10.60;;
4305;SDS011;2166;49.926;8.608;2024-01-30T03:29:40;19.65;;;11.27;;
4305;SDS011;2166;49.926;8.608;2024-01-30T03:32:09;19.42;;;11.30;;
4305;SDS011;2166;49.926;8.608;2024-01-30T03:34:37;16.13;;;11.25;;
4305;SDS011;2166;49.926;8.608;2024-01-30T03:37:06;18.70;;;10.23;;
4305;SDS011;2166;49.926;8.608;2024-01-30T03:39:35;16.85;;;10.38;;
4305;SDS011;2166;49.926;8.608;2024-01-30T03:42:03;17.40;;;10.85;;
4305;SDS011;2166;49.926;8.608;2024-01-30T03:44:31;17.95;;;10.40;;
4305;SDS011;2166;49.926;8.608;2024-01-30T03:47:00;18.50;;;11.18;;
4305;SDS011;2166;49.926;8.608;2024-01-30T03:49:29;19.52;;;9.93;;
4305;SDS011;2166;49.926;8.608;2024-01-30T03:51:57;16.15;;;10.38;;
4305;SDS011;2166;49.926;8.608;2024-01-30T03:54:26;19.70;;;11.50;;
4305;SDS011;2166;49.926;8.608;2024-01-30T03:56:54;17.48;;;10.63;;
4305;SDS011;2166;49.926;8.608;2024-01-30T03:59:22;19.50;;;10.63;;
4305;SDS011;2166;49.926;8.608;2024-01-30T04:01:51;20.40;;;9.77;;
4305;SDS011;2166;49.926;8.608;2024-01-30T04:04:20;14.73;;;9.68;;
4305;SDS011;2166;49.926;8.608;2024-01-30T04:06:49;15.65;;;9.38;;
4305;SDS011;2166;49.926;8.608;2024-01-30T04:09:18;14.90;;;9.75;;
4305;SDS011;2166;49.926;8.608;2024-01-30T04:11:46;18.67;;;10.07;;
4305;SDS011;2166;49.926;8.608;2024-01-30T04:14:14;15.50;;;10.13;;
4305;SDS011;2166;49.926;8.608;2024-01-30T04:16:42;18.42;;;9.60;;
4305;SDS011;2166;49.926;8.608;2024-01-30T04:19:11;12.65;;;8.93;;
4305;SDS011;2166;49.926;8.608;2024-01-30T04:21:39;21.90;;;11.02;;
4305;SDS011;2166;49.926;8.608;2024-01-30T04:24:09;17.40;;;9.95;;
4305;SDS011;2166;49.926;8.608;2024-01-30T04:26:37;15.23;;;9.82;;
4305;SDS011;2166;49.926;8.608;2024-01-30T04:29:05;18.33;;;9.55;;
4305;SDS011;2166;49.926;8.608;2024-01-30T04:31:36;16.75;;;9.77;;
4305;SDS011;2166;49.926;8.608;2024-01-30T04:34:04;19.33;;;9.13;;
4305;SDS011;2166;49.926;8.608;2024-01-30T04:36:33;22.45;;;12.73;;
4305;SDS011;2166;49.926;8.608;2024-01-30T04:39:01;21.75;;;10.55;;
4305;SDS011;2166;49.926;8.608;2024-01-30T04:41:31;16.42;;;9.98;;
4305;SDS011;2166;49.926;8.608;2024-01-30T04:44:00;19.83;;;9.10;;
4305;SDS011;2166;49.926;8.608;2024-01-30T04:46:28;17.30;;;9.65;;
4305;SDS011;2166;49.926;8.608;2024-01-30T04:48:56;20.52;;;10.60;;
4305;SDS011;2166;49.926;8.608;2024-01-30T04:51:25;18.08;;;10.38;;
4305;SDS011;2166;49.926;8.608;2024-01-30T04:53:53;15.93;;;9.65;;
4305;SDS011;2166;49.926;8.608;2024-01-30T04:56:21;21.02;;;9.77;;
4305;SDS011;2166;49.926;8.608;2024-01-30T04:58:53;17.40;;;10.45;;
4305;SDS011;2166;49.926;8.608;2024-01-30T05:01:22;19.05;;;9.25;;
4305;SDS011;2166;49.926;8.608;2024-01-30T05:03:51;14.32;;;9.85;;
4305;SDS011;2166;49.926;8.608;2024-01-30T05:06:25;14.75;;;9.30;;
4305;SDS011;2166;49.926;8.608;2024-01-30T05:11:23;14.10;;;8.50;;
4305;SDS011;2166;49.926;8.608;2024-01-30T05:13:52;18.58;;;9.57;;
4305;SDS011;2166;49.926;8.608;2024-01-30T05:16:21;16.70;;;9.00;;
4305;SDS011;2166;49.926;8.608;2024-01-30T05:18:49;21.77;;;10.25;;
4305;SDS011;2166;49.926;8.608;2024-01-30T05:21:17;13.32;;;8.85;;
4305;SDS011;2166;49.926;8.608;2024-01-30T05:23:46;15.00;;;9.98;;
4305;SDS011;2166;49.926;8.608;2024-01-30T05:26:14;19.00;;;9.88;;
4305;SDS011;2166;49.926;8.608;2024-01-30T05:28:43;17.85;;;9.80;;
4305;SDS011;2166;49.926;8.608;2024-01-30T05:31:14;13.00;;;8.70;;
4305;SDS011;2166;49.926;8.608;2024-01-30T05:33:43;16.33;;;10.07;;
4305;SDS011;2166;49.926;8.608;2024-01-30T05:36:11;18.23;;;10.15;;
4305;SDS011;2166;49.926;8.608;2024-01-30T05:38:41;19.85;;;10.65;;
4305;SDS011;2166;49.926;8.608;2024-01-30T05:41:10;19.23;;;10.10;;
4305;SDS011;2166;49.926;8.608;2024-01-30T05:43:38;21.35;;;10.18;;
4305;SDS011;2166;49.926;8.608;2024-01-30T05:46:06;16.98;;;10.95;;
4305;SDS011;2166;49.926;8.608;2024-01-30T05:48:36;18.85;;;11.13;;
4305;SDS011;2166;49.926;8.608;2024-01-30T05:51:04;16.73;;;9.60;;
4305;SDS011;2166;49.926;8.608;2024-01-30T05:53:35;16.08;;;10.30;;
4305;SDS011;2166;49.926;8.608;2024-01-30T05:56:03;17.75;;;10.30;;
4305;SDS011;2166;49.926;8.608;2024-01-30T05:58:32;19.33;;;10.98;;
4305;SDS011;2166;49.926;8.608;2024-01-30T06:01:01;20.40;;;10.25;;
4305;SDS011;2166;49.926;8.608;2024-01-30T06:03:30;20.05;;;10.93;;
4305;SDS011;2166;49.926;8.608;2024-01-30T06:05:59;22.15;;;10.93;;
4305;SDS011;2166;49.926;8.608;2024-01-30T06:08:28;19.58;;;11.35;;
4305;SDS011;2166;49.926;8.608;2024-01-30T06:10:56;23.17;;;11.65;;
4305;SDS011;2166;49.926;8.608;2024-01-30T06:13:24;18.85;;;11.35;;
4305;SDS011;2166;49.926;8.608;2024-01-30T06:15:53;21.17;;;10.68;;
4305;SDS011;2166;49.926;8.608;2024-01-30T06:18:21;20.42;;;11.10;;
4305;SDS011;2166;49.926;8.608;2024-01-30T06:20:49;21.33;;;11.32;;
4305;SDS011;2166;49.926;8.608;2024-01-30T06:23:20;19.00;;;9.77;;
4305;SDS011;2166;49.926;8.608;2024-01-30T06:25:48;23.35;;;11.57;;
4305;SDS011;2166;49.926;8.608;2024-01-30T06:28:16;21.85;;;10.95;;
4305;SDS011;2166;49.926;8.608;2024-01-30T06:30:45;24.48;;;11.90;;
4305;SDS011;2166;49.926;8.608;2024-01-30T06:33:13;17.67;;;11.43;;
4305;SDS011;2166;49.926;8.608;2024-01-30T06:35:42;22.92;;;12.52;;
4305;SDS011;2166;49.926;8.608;2024-01-30T06:38:12;23.63;;;12.20;;
4305;SDS011;2166;49.926;8.608;2024-01-30T06:40:43;25.73;;;12.63;;
4305;SDS011;2166;49.926;8.608;2024-01-30T06:43:12;19.75;;;11.27;;
4305;SDS011;2166;49.926;8.608;2024-01-30T06:45:40;24.70;;;12.02;;
4305;SDS011;2166;49.926;8.608;2024-01-30T06:48:09;23.23;;;11.95;;
4305;SDS011;2166;49.926;8.608;2024-01-30T06:50:38;16.35;;;10.15;;
4305;SDS011;2166;49.926;8.608;2024-01-30T06:53:07;21.95;;;12.77;;
4305;SDS011;2166;49.926;8.608;2024-01-30T06:55:35;27.10;;;12.07;;
4305;SDS011;2166;49.926;8.608;2024-01-30T06:58:05;22.48;;;11.82;;
4305;SDS011;2166;49.926;8.608;2024-01-30T07:00:33;22.05;;;11.93;;
4305;SDS011;2166;49.926;8.608;2024-01-30T07:03:02;20.75;;;12.18;;
4305;SDS011;2166;49.926;8.608;2024-01-30T07:05:31;21.98;;;10.52;;
4305;SDS011;2166;49.926;8.608;2024-01-30T07:08:00;19.02;;;11.43;;
4305;SDS011;2166;49.926;8.608;2024-01-30T07:10:28;18.98;;;12.05;;
4305;SDS011;2166;49.926;8.608;2024-01-30T07:12:58;22.50;;;10.65;;
4305;SDS011;2166;49.926;8.608;2024-01-30T07:15:29;17.00;;;9.93;;
4305;SDS011;2166;49.926;8.608;2024-01-30T07:17:57;20.05;;;12.38;;
4305;SDS011;2166;49.926;8.608;2024-01-30T07:20:25;18.70;;;11.20;;
4305;SDS011;2166;49.926;8.608;2024-01-30T07:22:54;20.80;;;11.93;;
4305;SDS011;2166;49.926;8.608;2024-01-30T07:25:22;23.92;;;12.80;;
4305;SDS011;2166;49.926;8.608;2024-01-30T07:27:53;21.83;;;11.38;;
4305;SDS011;2166;49.926;8.608;2024-01-30T07:30:21;17.10;;;10.85;;
4305;SDS011;2166;49.926;8.608;2024-01-30T07:32:52;19.10;;;11.32;;
4305;SDS011;2166;49.926;8.608;2024-01-30T07:35:21;20.92;;;12.23;;
4305;SDS011;2166;49.926;8.608;2024-01-30T07:37:49;19.60;;;11.13;;
4305;SDS011;2166;49.926;8.608;2024-01-30T07:40:18;16.23;;;9.70;;
4305;SDS011;2166;49.926;8.608;2024-01-30T07:42:47;16.65;;;9.60;;
4305;SDS011;2166;49.926;8.608;2024-01-30T07:45:16;19.70;;;11.20;;
4305;SDS011;2166;49.926;8.608;2024-01-30T07:47:48;14.77;;;9.38;;
4305;SDS011;2166;49.926;8.608;2024-01-30T07:50:18;17.17;;;10.18;;
4305;SDS011;2166;49.926;8.608;2024-01-30T07:52:46;19.27;;;10.00;;
4305;SDS011;2166;49.926;8.608;2024-01-30T07:55:17;15.02;;;9.98;;
4305;SDS011;2166;49.926;8.608;2024-01-30T07:57:47;19.92;;;13.13;;
4305;SDS011;2166;49.926;8.608;2024-01-30T08:00:18;20.42;;;11.38;;
4305;SDS011;2166;49.926;8.608;2024-01-30T08:02:47;17.98;;;10.45;;
4305;SDS011;2166;49.926;8.608;2024-01-30T08:05:17;16.38;;;9.93;;
4305;SDS011;2166;49.926;8.608;2024-01-30T08:07:45;16.77;;;10.52;;
4305;SDS011;2166;49.926;8.608;2024-01-30T08:10:14;17.67;;;9.52;;
4305;SDS011;2166;49.926;8.608;2024-01-30T08:12:45;21.52;;;10.85;;
4305;SDS011;2166;49.926;8.608;2024-01-30T08:15:13;17.60;;;10.48;;
4305;SDS011;2166;49.926;8.608;2024-01-30T08:17:42;16.27;;;9.88;;
4305;SDS011;2166;49.926;8.608;2024-01-30T08:20:11;20.50;;;10.38;;
4305;SDS011;2166;49.926;8.608;2024-01-30T08:22:43;20.70;;;10.45;;
4305;SDS011;2166;49.926;8.608;2024-01-30T08:25:11;13.70;;;9.05;;
4305;SDS011;2166;49.926;8.608;2024-01-30T08:27:39;14.77;;;9.18;;
4305;SDS011;2166;49.926;8.608;2024-01-30T08:30:08;17.40;;;8.75;;
4305;SDS011;2166;49.926;8.608;2024-01-30T08:32:37;13.93;;;9.02;;
4305;SDS011;2166;49.926;8.608;2024-01-30T08:35:06;20.00;;;10.02;;
4305;SDS011;2166;49.926;8.608;2024-01-30T08:37:35;19.20;;;9.75;;
4305;SDS011;2166;49.926;8.608;2024-01-30T08:40:07;14.05;;;8.73;;
4305;SDS011;2166;49.926;8.608;2024-01-30T08:42:36;17.13;;;9.10;;
4305;SDS011;2166;49.926;8.608;2024-01-30T08:45:05;18.27;;;9.95;;
4305;SDS011;2166;49.926;8.608;2024-01-30T08:47:34;14.85;;;9.07;;
4305;SDS011;2166;49.926;8.608;2024-01-30T08:50:03;18.20;;;9.40;;
4305;SDS011;2166;49.926;8.608;2024-01-30T08:52:32;19.60;;;10.50;;
4305;SDS011;2166;49.926;8.608;2024-01-30T08:55:01;18.10;;;9.95;;
4305;SDS011;2166;49.926;8.608;2024-01-30T08:57:33;16.90;;;10.32;;
4305;SDS011;2166;49.926;8.608;2024-01-30T09:00:01;21.35;;;10.93;;
4305;SDS011;2166;49.926;8.608;2024-01-30T09:02:33;17.23;;;9.35;;
4305;SDS011;2166;49.926;8.608;2024-01-30T09:05:02;16.80;;;10.30;;
4305;SDS011;2166;49.926;8.608;2024-01-30T09:07:30;15.63;;;9.48;;
4305;SDS011;2166;49.926;8.608;2024-01-30T09:09:59;17.20;;;10.68;;
4305;SDS011;2166;49.926;8.608;2024-01-30T09:12:28;16.65;;;9.05;;
4305;SDS011;2166;49.926;8.608;2024-01-30T09:14:57;16.02;;;9.68;;
4305;SDS011;2166;49.926;8.608;2024-01-30T09:17:26;14.20;;;10.82;;
4305;SDS011;2166;49.926;8.608;2024-01-30T09:19:55;15.23;;;10.70;;
4305;SDS011;2166;49.926;8.608;2024-01-30T09:22:23;15.82;;;10.05;;
4305;SDS011;2166;49.926;8.608;2024-01-30T09:24:52;21.15;;;12.02;;
4305;SDS011;2166;49.926;8.608;2024-01-30T09:27:20;18.83;;;11.40;;
4305;SDS011;2166;49.926;8.608;2024-01-30T09:29:49;19.75;;;12.80;;
4305;SDS011;2166;49.926;8.608;2024-01-30T09:32:19;22.95;;;12.55;;
4305;SDS011;2166;49.926;8.608;2024-01-30T09:34:47;19.77;;;12.88;;
4305;SDS011;2166;49.926;8.608;2024-01-30T09:37:15;17.77;;;11.85;;
4305;SDS011;2166;49.926;8.608;2024-01-30T09:39:44;20.80;;;13.38;;
4305;SDS011;2166;49.926;8.608;2024-01-30T09:42:16;18.15;;;12.45;;
4305;SDS011;2166;49.926;8.608;2024-01-30T09:44:50;18.83;;;13.00;;
4305;SDS011;2166;49.926;8.608;2024-01-30T09:47:20;26.25;;;12.20;;
4305;SDS011;2166;49.926;8.608;2024-01-30T09:49:49;18.27;;;11.88;;
4305;SDS011;2166;49.926;8.608;2024-01-30T09:52:18;20.80;;;12.30;;
4305;SDS011;2166;49.926;8.608;2024-01-30T09:54:46;17.30;;;12.13;;
4305;SDS011;2166;49.926;8.608;2024-01-30T09:57:19;24.27;;;12.85;;
4305;SDS011;2166;49.926;8.608;2024-01-30T09:59:47;17.52;;;12.00;;
4305;SDS011;2166;49.926;8.608;2024-01-30T10:02:17;17.98;;;12.20;;
4305;SDS011;2166;49.926;8.608;2024-01-30T10:04:48;15.93;;;11.15;;
4305;SDS011;2166;49.926;8.608;2024-01-30T10:07:18;17.60;;;10.63;;
4305;SDS011;2166;49.926;8.608;2024-01-30T10:09:47;22.67;;;11.35;;
4305;SDS011;2166;49.926;8.608;2024-01-30T10:12:15;19.02;;;11.35;;
4305;SDS011;2166;49.926;8.608;2024-01-30T10:14:44;19.95;;;12.45;;
4305;SDS011;2166;49.926;8.608;2024-01-30T10:17:12;18.75;;;11.25;;
4305;SDS011;2166;49.926;8.608;2024-01-30T10:19:55;17.25;;;10.48;;
4305;SDS011;2166;49.926;8.608;2024-01-30T10:22:23;22.15;;;11.77;;
4305;SDS011;2166;49.926;8.608;2024-01-30T10:24:52;18.92;;;11.50;;
4305;SDS011;2166;49.926;8.608;2024-01-30T10:27:23;17.42;;;11.65;;
4305;SDS011;2166;49.926;8.608;2024-01-30T10:29:53;21.13;;;12.23;;
4305;SDS011;2166;49.926;8.608;2024-01-30T10:32:22;17.85;;;12.45;;
4305;SDS011;2166;49.926;8.608;2024-01-30T10:34:50;19.23;;;10.98;;
4305;SDS011;2166;49.926;8.608;2024-01-30T10:37:20;17.05;;;11.52;;
4305;SDS011;2166;49.926;8.608;2024-01-30T10:39:53;18.05;;;10.98;;
4305;SDS011;2166;49.926;8.608;2024-01-30T10:42:25;18.63;;;11.95;;
4305;SDS011;2166;49.926;8.608;2024-01-30T10:44:57;16.42;;;12.32;;
4305;SDS011;2166;49.926;8.608;2024-01-30T10:47:30;23.85;;;11.90;;
4305;SDS011;2166;49.926;8.608;2024-01-30T10:50:01;18.35;;;12.15;;
4305;SDS011;2166;49.926;8.608;2024-01-30T10:52:32;17.15;;;10.93;;
4305;SDS011;2166;49.926;8.608;2024-01-30T10:55:00;19.13;;;12.63;;
4305;SDS011;2166;49.926;8.608;2024-01-30T10:57:33;20.50;;;12.15;;
4305;SDS011;2166;49.926;8.608;2024-01-30T11:00:03;17.08;;;11.55;;
4305;SDS011;2166;49.926;8.608;2024-01-30T11:02:37;21.48;;;12.55;;
4305;SDS011;2166;49.926;8.608;2024-01-30T11:05:07;17.83;;;10.93;;
4305;SDS011;2166;49.926;8.608;2024-01-30T11:07:38;18.67;;;11.98;;
4305;SDS011;2166;49.926;8.608;2024-01-30T11:10:08;18.65;;;12.32;;
4305;SDS011;2166;49.926;8.608;2024-01-30T11:12:40;21.17;;;11.98;;
4305;SDS011;2166;49.926;8.608;2024-01-30T11:15:11;16.63;;;10.98;;
4305;SDS011;2166;49.926;8.608;2024-01-30T11:17:45;17.67;;;11.50;;
4305;SDS011;2166;49.926;8.608;2024-01-30T11:20:20;18.90;;;11.43;;
4305;SDS011;2166;49.926;8.608;2024-01-30T11:22:52;16.13;;;11.00;;
4305;SDS011;2166;49.926;8.608;2024-01-30T11:25:21;19.17;;;11.95;;
4305;SDS011;2166;49.926;8.608;2024-01-30T11:27:51;18.10;;;11.60;;
4305;SDS011;2166;49.926;8.608;2024-01-30T11:30:21;17.70;;;11.73;;
4305;SDS011;2166;49.926;8.608;2024-01-30T11:33:00;15.85;;;10.65;;
4305;SDS011;2166;49.926;8.608;2024-01-30T11:35:32;17.88;;;10.98;;
4305;SDS011;2166;49.926;8.608;2024-01-30T11:38:03;15.48;;;10.00;;
4305;SDS011;2166;49.926;8.608;2024-01-30T11:40:33;19.45;;;11.23;;
4305;SDS011;2166;49.926;8.608;2024-01-30T11:43:03;18.08;;;10.07;;
4305;SDS011;2166;49.926;8.608;2024-01-30T11:45:33;17.05;;;10.85;;
4305;SDS011;2166;49.926;8.608;2024-01-30T11:48:03;19.70;;;11.35;;
4305;SDS011;2166;49.926;8.608;2024-01-30T11:50:32;16.38;;;11.25;;
4305;SDS011;2166;49.926;8.608;2024-01-30T11:53:03;19.60;;;11.80;;
4305;SDS011;2166;49.926;8.608;2024-01-30T11:55:32;18.75;;;11.30;;
4305;SDS011;2166;49.926;8.608;2024-01-30T11:58:03;18.52;;;11.73;;
4305;SDS011;2166;49.926;8.608;2024-01-30T12:00:32;17.42;;;11.15;;
4305;SDS011;2166;49.926;8.608;2024-01-30T12:03:01;14.25;;;10.35;;
4305;SDS011;2166;49.926;8.608;2024-01-30T12:05:33;19.25;;;11.65;;
4305;SDS011;2166;49.926;8.608;2024-01-30T12:08:04;18.38;;;11.10;;
4305;SDS011;2166;49.926;8.608;2024-01-30T12:10:34;15.25;;;10.45;;
4305;SDS011;2166;49.926;8.608;2024-01-30T12:13:03;17.75;;;10.52;;
4305;SDS011;2166;49.926;8.608;2024-01-30T12:15:32;14.52;;;10.13;;
4305;SDS011;2166;49.926;8.608;2024-01-30T12:18:03;16.13;;;10.70;;
4305;SDS011;2166;49.926;8.608;2024-01-30T12:20:34;16.07;;;11.27;;
4305;SDS011;2166;49.926;8.608;2024-01-30T12:23:04;16.73;;;10.43;;
4305;SDS011;2166;49.926;8.608;2024-01-30T12:25:33;15.57;;;11.32;;
4305;SDS011;2166;49.926;8.608;2024-01-30T12:28:02;14.75;;;10.13;;
4305;SDS011;2166;49.926;8.608;2024-01-30T12:30:31;14.40;;;10.25;;
4305;SDS011;2166;49.926;8.608;2024-01-30T12:32:59;16.50;;;10.52;;
4305;SDS011;2166;49.926;8.608;2024-01-30T12:35:28;19.08;;;10.43;;
4305;SDS011;2166;49.926;8.608;2024-01-30T12:37:59;13.80;;;9.40;;
4305;SDS011;2166;49.926;8.608;2024-01-30T12:40:29;14.93;;;10.45;;
4305;SDS011;2166;49.926;8.608;2024-01-30T12:43:02;19.23;;;10.93;;
4305;SDS011;2166;49.926;8.608;2024-01-30T12:45:31;14.80;;;10.45;;
4305;SDS011;2166;49.926;8.608;2024-01-30T12:47:59;16.67;;;10.75;;
4305;SDS011;2166;49.926;8.608;2024-01-30T12:50:34;15.43;;;10.27;;
4305;SDS011;2166;49.926;8.608;2024-01-30T12:53:03;15.77;;;10.32;;
4305;SDS011;2166;49.926;8.608;2024-01-30T12:55:33;18.33;;;10.25;;
4305;SDS011;2166;49.926;8.608;2024-01-30T12:58:02;14.18;;;9.38;;
4305;SDS011;2166;49.926;8.608;2024-01-30T13:00:32;14.60;;;9.88;;
4305;SDS011;2166;49.926;8.608;2024-01-30T13:03:01;15.95;;;9.88;;
4305;SDS011;2166;49.926;8.608;2024-01-30T13:05:30;14.93;;;9.80;;
4305;SDS011;2166;49.926;8.608;2024-01-30T13:07:59;13.80;;;9.30;;
4305;SDS011;2166;49.926;8.608;2024-01-30T13:10:27;13.38;;;9.27;;
4305;SDS011;2166;49.926;8.608;2024-01-30T13:12:57;15.00;;;9.90;;
4305;SDS011;2166;49.926;8.608;2024-01-30T13:15:25;15.15;;;9.65;;
4305;SDS011;2166;49.926;8.608;2024-01-30T13:17:54;15.88;;;8.93;;
4305;SDS011;2166;49.926;8.608;2024-01-30T13:20:22;13.18;;;8.57;;
4305;SDS011;2166;49.926;8.608;2024-01-30T13:22:50;17.10;;;9.25;;
4305;SDS011;2166;49.926;8.608;2024-01-30T13:25:19;15.07;;;9.73;;
4305;SDS011;2166;49.926;8.608;2024-01-30T13:27:50;16.92;;;10.48;;
4305;SDS011;2166;49.926;8.608;2024-01-30T13:30:20;13.90;;;9.13;;
4305;SDS011;2166;49.926;8.608;2024-01-30T13:32:48;16.85;;;9.05;;
4305;SDS011;2166;49.926;8.608;2024-01-30T13:35:17;14.55;;;9.88;;
4305;SDS011;2166;49.926;8.608;2024-01-30T13:37:46;11.85;;;7.50;;
4305;SDS011;2166;49.926;8.608;2024-01-30T13:40:15;13.95;;;8.73;;
4305;SDS011;2166;49.926;8.608;2024-01-30T13:42:44;14.77;;;9.38;;
4305;SDS011;2166;49.926;8.608;2024-01-30T13:45:13;14.52;;;9.27;;
4305;SDS011;2166;49.926;8.608;2024-01-30T13:47:43;18.30;;;10.40;;
4305;SDS011;2166;49.926;8.608;2024-01-30T13:50:11;20.05;;;8.98;;
4305;SDS011;2166;49.926;8.608;2024-01-30T13:52:42;12.20;;;8.30;;
4305;SDS011;2166;49.926;8.608;2024-01-30T13:55:12;14.43;;;8.93;;
4305;SDS011;2166;49.926;8.608;2024-01-30T13:57:41;15.13;;;8.93;;
4305;SDS011;2166;49.926;8.608;2024-01-30T14:00:10;14.52;;;9.32;;
4305;SDS011;2166;49.926;8.608;2024-01-30T14:02:44;12.30;;;7.40;;
4305;SDS011;2166;49.926;8.608;2024-01-30T14:05:13;13.95;;;9.18;;
4305;SDS011;2166;49.926;8.608;2024-01-30T14:07:42;14.07;;;9.13;;
4305;SDS011;2166;49.926;8.608;2024-01-30T14:10:11;17.42;;;7.78;;
4305;SDS011;2166;49.926;8.608;2024-01-30T14:12:41;13.25;;;8.98;;
4305;SDS011;2166;49.926;8.608;2024-01-30T14:15:11;14.68;;;9.10;;
4305;SDS011;2166;49.926;8.608;2024-01-30T14:17:55;16.77;;;7.95;;
4305;SDS011;2166;49.926;8.608;2024-01-30T14:20:25;18.27;;;10.25;;
4305;SDS011;2166;49.926;8.608;2024-01-30T14:22:54;16.17;;;10.48;;
4305;SDS011;2166;49.926;8.608;2024-01-30T14:25:23;19.20;;;8.95;;
4305;SDS011;2166;49.926;8.608;2024-01-30T14:27:52;17.25;;;9.18;;
4305;SDS011;2166;49.926;8.608;2024-01-30T14:30:20;17.27;;;9.63;;
4305;SDS011;2166;49.926;8.608;2024-01-30T14:32:49;12.25;;;8.45;;
4305;SDS011;2166;49.926;8.608;2024-01-30T14:35:19;12.60;;;8.30;;
4305;SDS011;2166;49.926;8.608;2024-01-30T14:37:48;11.02;;;7.15;;
4305;SDS011;2166;49.926;8.608;2024-01-30T14:40:17;11.80;;;8.57;;
4305;SDS011;2166;49.926;8.608;2024-01-30T14:42:45;13.57;;;8.10;;
4305;SDS011;2166;49.926;8.608;2024-01-30T14:45:14;16.60;;;9.13;;
4305;SDS011;2166;49.926;8.608;2024-01-30T14:47:43;14.23;;;9.57;;
4305;SDS011;2166;49.926;8.608;2024-01-30T14:50:13;14.32;;;8.57;;
4305;SDS011;2166;49.926;8.608;2024-01-30T14:52:45;12.90;;;9.45;;
4305;SDS011;2166;49.926;8.608;2024-01-30T14:55:13;14.00;;;9.40;;
4305;SDS011;2166;49.926;8.608;2024-01-30T14:57:42;15.82;;;10.30;;
4305;SDS011;2166;49.926;8.608;2024-01-30T15:00:13;14.10;;;9.30;;
4305;SDS011;2166;49.926;8.608;2024-01-30T15:02:43;84.13;;;15.07;;
4305;SDS011;2166;49.926;8.608;2024-01-30T15:05:13;17.77;;;8.70;;
4305;SDS011;2166;49.926;8.608;2024-01-30T15:07:42;15.35;;;9.50;;